Time;durP1;ratioP1;P1;durP2;ratioP2;P2;SDS_P1;SDS_P2;PMS_P1;PMS_P2;Temp;Humidity;BMP_temperature;BMP_pressure;BME280_temperature;BME280_humidity;BME280_pressure;Samples;Min_cycle;Max_cycle;Signal;HPM_P1;HPM_P2
2022/06/13 00:01:20;;;;;;;;;;;;;;;20.01;77.18;99210.72;5032251;28;818;-61
2022/06/13 00:03:47;;;;;;;;;;;;;;;19.99;76.98;99207.63;5032213;28;890;-61
2022/06/13 00:06:14;;;;;;;;;;;;;;;19.94;77.38;99197.09;5032227;28;874;-59
2022/06/13 00:20:53;;;;;;;;;;;;;;;19.97;76.96;99182.09;5032338;28;604;-60
2022/06/13 00:23:19;;;;;;;;;;;;;;;19.95;77.53;99177.00;5031917;28;815;-58
2022/06/13 00:25:46;;;;;;;;;;;;;;;19.90;77.70;99185.31;5031838;28;854;-61
2022/06/13 00:28:14;;;;;;;;;;;;;;;19.88;77.65;99177.34;5031874;28;984;-63
2022/06/13 00:30:40;;;;;;;;;;;;;;;19.83;77.99;99180.84;5031504;28;1241;-61
2022/06/13 00:33:06;;;;;;;;;;;;;;;19.81;78.15;99174.19;5031809;28;886;-58
2022/06/13 00:35:33;;;;;;;;;;;;;;;19.81;78.17;99174.94;5031768;28;807;-63
2022/06/13 00:38:00;;;;;;;;;;;;;;;19.74;78.59;99172.53;5031564;28;1974;-62
2022/06/13 00:40:29;;;;;;;;;;;;;;;19.60;79.59;99176.81;5031713;28;838;-60
2022/06/13 00:42:56;;;;;;;;;;;;;;;19.54;79.85;99175.91;5031902;28;850;-61
2022/06/13 00:45:33;;;;;;;;;;;;;;;19.51;80.00;99182.50;5031558;28;866;-61
2022/06/13 00:48:01;;;;;;;;;;;;;;;19.43;80.44;99179.28;5031597;28;1114;-60
2022/06/13 00:50:30;;;;;;;;;;;;;;;19.47;80.47;99182.66;5031076;28;807;-62
2022/06/13 00:53:05;;;;;;;;;;;;;;;19.47;80.48;99179.09;5031642;28;870;-61
2022/06/13 00:55:35;;;;;;;;;;;;;;;19.44;81.02;99183.63;5031493;28;889;-62
2022/06/13 00:58:02;;;;;;;;;;;;;;;19.31;81.64;99178.28;5031387;28;1953;-61
2022/06/13 01:00:30;;;;;;;;;;;;;;;19.18;82.35;99183.31;5031488;28;862;-62
2022/06/13 01:02:58;;;;;;;;;;;;;;;19.13;82.88;99184.75;5031509;28;890;-59
2022/06/13 01:05:27;;;;;;;;;;;;;;;19.18;82.49;99172.13;5031451;28;835;-62
2022/06/13 01:07:54;;;;;;;;;;;;;;;19.16;82.85;99177.44;5031655;28;850;-60
2022/06/13 01:13:08;;;;;;;;;;;;;;;19.06;83.44;99173.94;5031680;28;641;-61
2022/06/13 01:15:47;;;;;;;;;;;;;;;19.24;82.33;99172.25;5031467;28;894;-62
2022/06/13 01:18:26;;;;;;;;;;;;;;;19.32;81.79;99165.81;5031244;28;1890;-60
2022/06/13 01:20:59;;;;;;;;;;;;;;;19.40;81.22;99157.81;5031363;28;818;-61
2022/06/13 01:23:38;;;;;;;;;;;;;;;19.54;80.63;99167.50;5031247;28;818;-60
2022/06/13 01:26:14;;;;;;;;;;;;;;;19.48;80.73;99156.22;5031730;28;967;-62
2022/06/13 01:28:40;;;;;;;;;;;;;;;19.47;80.84;99165.09;5031494;28;936;-61
2022/06/13 01:31:17;;;;;;;;;;;;;;;19.46;80.77;99161.50;5031114;28;1359;-62
2022/06/13 01:34:09;;;;;;;;;;;;;;;19.50;80.57;99162.09;5031158;28;842;-59
2022/06/13 01:36:47;;;;;;;;;;;;;;;19.50;80.60;99164.91;5031442;28;818;-63
2022/06/13 01:39:20;;;;;;;;;;;;;;;19.58;80.10;99160.47;5031058;28;1938;-62
2022/06/13 01:41:59;;;;;;;;;;;;;;;19.58;79.97;99170.91;5031100;28;806;-64
2022/06/13 01:44:40;;;;;;;;;;;;;;;19.63;79.68;99167.44;5031133;28;878;-62
2022/06/13 01:47:11;;;;;;;;;;;;;;;19.51;80.41;99163.66;5013285;28;832;-63
2022/06/13 01:49:57;;;;;;;;;;;;;;;19.42;80.80;99160.16;5031028;28;802;-64
2022/06/13 01:52:23;;;;;;;;;;;;;;;19.43;80.77;99168.06;5030995;28;878;-61
2022/06/13 01:55:03;;;;;;;;;;;;;;;19.54;80.34;99168.31;5031057;28;861;-61
2022/06/13 01:57:33;;;;;;;;;;;;;;;19.49;80.27;99168.94;5030972;28;1953;-64
2022/06/13 02:00:14;;;;;;;;;;;;;;;19.54;79.94;99170.31;5031270;28;936;-61
2022/06/13 02:02:50;;;;;;;;;;;;;;;19.61;79.50;99180.38;5016749;28;1211;-63
2022/06/13 02:05:21;;;;;;;;;;;;;;;19.57;79.87;99175.75;5034976;28;822;-61
2022/06/13 02:07:50;;;;;;;;;;;;;;;19.60;79.57;99176.81;5034453;28;918;-61
2022/06/13 02:10:21;;;;;;;;;;;;;;;19.67;79.32;99176.44;5034384;28;901;-63
2022/06/13 02:13:03;;;;;;;;;;;;;;;19.59;80.05;99190.06;5034269;28;818;-62
2022/06/13 02:15:37;;;;;;;;;;;;;;;19.50;80.63;99178.91;5000265;28;1454;-65
2022/06/13 02:18:13;;;;;;;;;;;;;;;19.32;81.40;99176.25;5034212;28;1874;-62
2022/06/13 02:20:43;;;;;;;;;;;;;;;19.43;80.79;99184.88;5034502;28;869;-63
2022/06/13 02:23:12;;;;;;;;;;;;;;;19.35;81.35;99180.88;5034181;28;885;-63
2022/06/13 02:25:45;;;;;;;;;;;;;;;19.28;81.46;99168.00;5034183;28;787;-63
2022/06/13 02:28:17;;;;;;;;;;;;;;;19.30;81.56;99176.72;5034087;28;906;-64
2022/06/13 02:31:00;;;;;;;;;;;;;;;19.33;81.25;99186.97;5033850;28;1340;-60
2022/06/13 02:33:46;;;;;;;;;;;;;;;19.37;81.01;99193.19;5033973;28;819;-65
2022/06/13 02:36:35;;;;;;;;;;;;;;;19.43;80.80;99186.91;5033967;28;819;-61
2022/06/13 02:39:16;;;;;;;;;;;;;;;19.36;81.34;99188.81;5033764;28;1910;-63
2022/06/13 02:42:12;;;;;;;;;;;;;;;19.27;81.80;99196.53;5033823;28;788;-64
2022/06/13 02:44:56;;;;;;;;;;;;;;;19.21;82.29;99202.00;5006787;28;1166;-64
2022/06/13 02:47:26;;;;;;;;;;;;;;;19.21;82.20;99199.19;5033854;28;814;-61
2022/06/13 02:49:53;;;;;;;;;;;;;;;19.23;82.02;99210.72;5033661;28;799;-62
2022/06/13 02:52:27;;;;;;;;;;;;;;;19.26;82.06;99208.97;5033855;28;870;-61
2022/06/13 02:54:59;;;;;;;;;;;;;;;19.20;82.19;99199.66;5033862;28;886;-62
2022/06/13 02:57:49;;;;;;;;;;;;;;;19.22;82.25;99205.56;5033689;28;1886;-62
2022/06/13 03:00:21;;;;;;;;;;;;;;;19.17;82.70;99204.19;5033506;28;811;-63
2022/06/13 03:03:05;;;;;;;;;;;;;;;19.16;82.49;99194.22;5033350;28;1450;-63
2022/06/13 03:05:41;;;;;;;;;;;;;;;19.23;82.49;99193.13;5033430;28;956;-61
2022/06/13 03:08:07;;;;;;;;;;;;;;;19.21;82.54;99204.81;5033308;28;861;-62
2022/06/13 03:10:40;;;;;;;;;;;;;;;19.17;83.04;99195.81;5033285;28;882;-62
2022/06/13 03:13:14;;;;;;;;;;;;;;;19.21;82.68;99196.41;5014817;28;1165;-63
2022/06/13 03:15:45;;;;;;;;;;;;;;;19.27;82.67;99194.50;5033262;28;870;-64
2022/06/13 03:18:15;;;;;;;;;;;;;;;19.30;82.18;99198.38;5033054;28;1960;-62
2022/06/13 03:35:59;;;;;;;;;;;;;;;19.91;79.07;99184.81;4993836;28;685;-62
2022/06/13 03:38:31;;;;;;;;;;;;;;;19.91;78.96;99193.25;4993328;28;1918;-63
2022/06/13 03:40:59;;;;;;;;;;;;;;;19.94;78.94;99183.09;4993277;28;807;-62
2022/06/13 03:43:39;;;;;;;;;;;;;;;20.00;78.58;99186.75;4993547;28;836;-62
2022/06/13 03:46:22;;;;;;;;;;;;;;;20.04;78.27;99189.38;4993379;28;1025;-63
2022/06/13 03:48:55;;;;;;;;;;;;;;;20.07;77.98;99188.41;4993262;28;838;-64
2022/06/13 03:51:28;;;;;;;;;;;;;;;20.09;78.40;99195.09;4993203;28;878;-64
2022/06/13 03:54:08;;;;;;;;;;;;;;;20.12;78.45;99196.13;4993211;28;866;-62
2022/06/13 03:59:46;;;;;;;;;;;;;;;20.08;78.20;99179.53;4993037;28;613;-62
2022/06/13 04:02:14;;;;;;;;;;;;;;;20.12;77.21;99188.53;4992914;28;894;-62
2022/06/13 04:04:48;;;;;;;;;;;;;;;20.22;77.60;99180.00;4992897;28;883;-63
2022/06/13 04:07:18;;;;;;;;;;;;;;;20.27;77.96;99187.72;4992912;28;787;-61
2022/06/13 04:09:56;;;;;;;;;;;;;;;20.36;76.91;99182.03;4992773;28;797;-63
2022/06/13 04:12:41;;;;;;;;;;;;;;;20.47;76.46;99173.03;4992630;28;835;-63
2022/06/13 04:15:08;;;;;;;;;;;;;;;20.59;75.77;99177.59;4993075;28;807;-61
2022/06/13 04:17:35;;;;;;;;;;;;;;;20.69;75.63;99186.66;4992802;28;1890;-61
2022/06/13 04:20:17;;;;;;;;;;;;;;;20.73;75.38;99176.00;4993163;28;870;-62
2022/06/13 04:22:46;;;;;;;;;;;;;;;20.77;75.29;99191.38;4992426;28;902;-64
2022/06/13 04:25:15;;;;;;;;;;;;;;;20.83;75.29;99190.69;4991697;28;1005;-63
2022/06/13 04:30:46;;;;;;;;;;;;;;;20.93;75.04;99208.94;4996910;28;1157;-60
2022/06/13 04:33:20;;;;;;;;;;;;;;;20.94;74.57;99204.91;5031739;28;823;-63
2022/06/13 04:35:47;;;;;;;;;;;;;;;20.96;74.45;99220.00;5032080;28;858;-62
2022/06/13 04:38:15;;;;;;;;;;;;;;;21.01;74.28;99222.09;5031846;28;1914;-66
2022/06/13 04:40:45;;;;;;;;;;;;;;;21.11;75.17;99222.00;5031664;28;851;-62
2022/06/13 04:43:13;;;;;;;;;;;;;;;21.17;74.49;99225.66;5031764;28;864;-62
2022/06/13 04:45:51;;;;;;;;;;;;;;;21.23;75.11;99220.91;5031619;28;834;-63
2022/06/13 04:48:18;;;;;;;;;;;;;;;21.27;75.37;99229.88;5031479;28;875;-63
2022/06/13 04:50:47;;;;;;;;;;;;;;;21.30;75.43;99230.94;5031384;28;926;-63
2022/06/13 04:53:25;;;;;;;;;;;;;;;21.35;74.85;99222.56;5031594;28;827;-63
2022/06/13 04:55:52;;;;;;;;;;;;;;;21.44;73.77;99232.94;5031434;28;1346;-63
2022/06/13 04:58:24;;;;;;;;;;;;;;;21.50;73.62;99221.78;5031347;28;1965;-62
2022/06/13 05:00:55;;;;;;;;;;;;;;;21.54;73.67;99227.97;5031484;28;551;-62
2022/06/13 05:03:24;;;;;;;;;;;;;;;21.61;72.95;99230.34;5031380;28;807;-64
2022/06/13 05:05:53;;;;;;;;;;;;;;;21.64;73.27;99237.81;5031394;28;858;-61
2022/06/13 05:08:24;;;;;;;;;;;;;;;21.70;72.72;99241.47;5031722;28;855;-61
2022/06/13 05:10:52;;;;;;;;;;;;;;;21.73;72.87;99260.16;5013715;28;813;-62
2022/06/13 05:13:20;;;;;;;;;;;;;;;21.76;72.66;99236.69;5031403;28;857;-62
2022/06/13 05:15:53;;;;;;;;;;;;;;;21.85;72.97;99244.19;5031313;28;862;-63
2022/06/13 05:18:38;;;;;;;;;;;;;;;22.00;72.78;99269.41;5031269;28;1972;-63
2022/06/13 05:21:28;;;;;;;;;;;;;;;22.15;71.12;99244.75;5031276;28;799;-62
2022/06/13 05:23:54;;;;;;;;;;;;;;;22.44;69.59;99248.63;5021023;28;1211;-61
2022/06/13 05:26:27;;;;;;;;;;;;;;;22.74;68.65;99246.31;5031426;28;869;-64
2022/06/13 05:28:54;;;;;;;;;;;;;;;23.09;68.07;99255.84;5031268;28;1069;-61
2022/06/13 05:31:21;;;;;;;;;;;;;;;23.32;67.36;99253.91;5031155;28;1290;-64
2022/06/13 05:33:49;;;;;;;;;;;;;;;23.31;65.79;99247.50;5031119;28;897;-60
2022/06/13 05:36:18;;;;;;;;;;;;;;;23.32;66.03;99249.06;5033564;28;795;-61
2022/06/13 05:38:46;;;;;;;;;;;;;;;23.58;64.61;99251.00;5034745;28;1914;-62
2022/06/13 05:41:13;;;;;;;;;;;;;;;24.10;64.43;99253.50;5034996;28;819;-64
2022/06/13 05:43:40;;;;;;;;;;;;;;;24.21;63.05;99249.91;5035538;28;838;-65
2022/06/13 05:46:08;;;;;;;;;;;;;;;24.01;62.17;99243.22;5034880;28;851;-62
2022/06/13 05:48:35;;;;;;;;;;;;;;;24.19;62.23;99255.31;5035591;28;827;-62
2022/06/13 05:51:02;;;;;;;;;;;;;;;24.32;62.22;99244.28;5034988;28;858;-64
2022/06/13 05:53:28;;;;;;;;;;;;;;;24.40;60.82;99236.84;5035507;28;775;-62
2022/06/13 05:56:00;;;;;;;;;;;;;;;24.71;60.42;99231.50;5035045;28;882;-63
2022/06/13 05:58:27;;;;;;;;;;;;;;;25.01;60.24;99240.22;5034628;28;1957;-63
2022/06/13 06:00:55;;;;;;;;;;;;;;;25.14;59.46;99248.16;5034571;28;819;-62
2022/06/13 06:03:24;;;;;;;;;;;;;;;25.10;58.22;99222.22;5034589;28;878;-64
2022/06/13 06:05:52;;;;;;;;;;;;;;;24.99;59.56;99240.72;5034599;28;799;-62
2022/06/13 06:08:20;;;;;;;;;;;;;;;24.96;58.60;99236.09;5034229;28;815;-62
2022/06/13 06:10:48;;;;;;;;;;;;;;;25.19;58.63;99234.00;5034623;28;885;-61
2022/06/13 06:13:15;;;;;;;;;;;;;;;25.39;57.28;99238.63;5034309;28;819;-62
2022/06/13 06:15:43;;;;;;;;;;;;;;;25.59;56.81;99233.91;5034254;28;839;-61
2022/06/13 06:18:10;;;;;;;;;;;;;;;25.66;55.99;99239.78;5034168;28;1886;-62
2022/06/13 06:20:36;;;;;;;;;;;;;;;25.57;56.21;99233.66;5034204;28;870;-63
2022/06/13 06:23:03;;;;;;;;;;;;;;;25.56;56.39;99249.88;5034099;28;874;-62
2022/06/13 06:25:31;;;;;;;;;;;;;;;25.89;56.35;99250.28;5034134;28;917;-61
2022/06/13 06:27:58;;;;;;;;;;;;;;;25.94;55.39;99257.97;5034039;28;936;-63
2022/06/13 06:30:28;;;;;;;;;;;;;;;25.95;55.71;99268.75;5033970;28;885;-63
2022/06/13 06:32:55;;;;;;;;;;;;;;;26.02;56.16;99258.94;5033879;28;1248;-62
2022/06/13 06:35:24;;;;;;;;;;;;;;;26.08;55.63;99257.63;5033921;28;799;-61
2022/06/13 06:40:52;;;;;;;;;;;;;;;26.52;53.74;99285.41;5034020;28;782;-61
2022/06/13 06:43:19;;;;;;;;;;;;;;;26.59;54.47;99279.22;5033979;28;882;-63
2022/06/13 06:45:46;;;;;;;;;;;;;;;27.07;53.87;99277.78;5033821;28;851;-63
2022/06/13 06:48:17;;;;;;;;;;;;;;;27.33;51.17;99291.47;5032754;28;843;-62
2022/06/13 06:50:45;;;;;;;;;;;;;;;26.97;52.35;99280.19;5033580;28;819;-64
2022/06/13 06:53:12;;;;;;;;;;;;;;;27.25;52.14;99282.03;5033504;28;843;-64
2022/06/13 07:13:24;;;;;;;;;;;;;;;28.94;49.29;99296.06;5033634;28;675;-63
2022/06/13 07:15:51;;;;;;;;;;;;;;;29.04;48.58;99302.84;5033093;28;810;-61
2022/06/13 07:18:18;;;;;;;;;;;;;;;28.99;46.75;99290.28;5033076;28;1898;-62
2022/06/13 07:20:44;;;;;;;;;;;;;;;28.94;48.59;99308.22;5033279;28;834;-63
2022/06/13 07:23:11;;;;;;;;;;;;;;;29.19;49.06;99313.75;5033161;28;874;-62
2022/06/13 07:25:38;;;;;;;;;;;;;;;29.36;46.70;99316.28;5033162;28;885;-61
2022/06/13 07:28:05;;;;;;;;;;;;;;;29.38;47.39;99319.38;5033107;28;949;-65
2022/06/13 07:30:32;;;;;;;;;;;;;;;29.68;47.28;99324.75;5032591;28;1011;-64
2022/06/13 07:46:02;;;;;;;;;;;;;;;28.42;48.55;99318.03;5016935;28;1421;-61
2022/06/13 07:48:29;;;;;;;;;;;;;;;28.68;48.27;99321.03;5032707;28;851;-61
2022/06/13 07:50:56;;;;;;;;;;;;;;;28.86;46.36;99332.91;5032636;28;850;-63
2022/06/13 07:53:23;;;;;;;;;;;;;;;28.50;48.97;99319.72;5032550;28;864;-63
2022/06/13 07:55:49;;;;;;;;;;;;;;;28.28;47.46;99337.09;5032522;28;799;-60
2022/06/13 07:58:20;;;;;;;;;;;;;;;27.91;48.45;99310.22;5032159;28;1914;-62
2022/06/13 08:00:49;;;;;;;;;;;;;;;27.68;50.36;99318.94;5032335;28;818;-63
2022/06/13 08:03:35;;;;;;;;;;;;;;;28.24;49.87;99317.50;5032278;28;802;-60
2022/06/13 08:06:02;;;;;;;;;;;;;;;28.33;49.68;99304.97;5032238;28;873;-64
2022/06/13 08:08:29;;;;;;;;;;;;;;;28.25;49.84;99304.06;5031957;28;875;-61
2022/06/13 08:10:58;;;;;;;;;;;;;;;28.30;50.16;99315.34;5032106;28;819;-63
2022/06/13 08:13:25;;;;;;;;;;;;;;;28.27;49.14;99319.28;5032077;28;815;-62
2022/06/13 08:15:52;;;;;;;;;;;;;;;28.16;50.77;99308.06;5014288;28;917;-63
2022/06/13 08:18:19;;;;;;;;;;;;;;;28.30;49.25;99311.75;5031980;28;1947;-63
2022/06/13 08:20:46;;;;;;;;;;;;;;;28.32;49.31;99319.75;5031913;28;799;-64
2022/06/13 08:23:13;;;;;;;;;;;;;;;28.08;48.90;99322.13;5031524;28;1467;-62
2022/06/13 08:25:41;;;;;;;;;;;;;;;27.76;50.18;99338.22;5031934;28;818;-63
2022/06/13 08:28:09;;;;;;;;;;;;;;;26.63;53.66;99325.06;5031864;28;1009;-61
2022/06/13 08:30:41;;;;;;;;;;;;;;;27.07;54.66;99318.22;5031887;28;812;-61
2022/06/13 08:33:08;;;;;;;;;;;;;;;27.88;51.27;99311.25;5031729;28;881;-61
2022/06/13 08:35:34;;;;;;;;;;;;;;;28.20;49.64;99310.59;5031655;28;811;-60
2022/06/13 08:41:21;;;;;;;;;;;;;;;28.03;51.65;99319.34;5031700;28;661;-61
2022/06/13 08:43:58;;;;;;;;;;;;;;;28.19;49.90;99323.28;5031656;28;799;-62
2022/06/13 08:46:32;;;;;;;;;;;;;;;28.01;51.06;99325.53;5031365;28;1304;-61
2022/06/13 08:49:05;;;;;;;;;;;;;;;28.39;51.28;99331.25;5031636;28;878;-63
2022/06/13 08:51:37;;;;;;;;;;;;;;;28.33;49.25;99312.75;5031524;28;858;-61
2022/06/13 08:54:07;;;;;;;;;;;;;;;28.26;50.42;99320.56;5032310;28;823;-63
2022/06/13 08:56:36;;;;;;;;;;;;;;;28.14;50.62;99322.03;5031720;28;893;-60
2022/06/13 08:59:25;;;;;;;;;;;;;;;28.30;50.81;99315.34;5031457;28;1902;-59
2022/06/13 09:01:54;;;;;;;;;;;;;;;28.20;50.78;99330.47;5031317;28;1146;-59
2022/06/13 09:04:39;;;;;;;;;;;;;;;27.89;50.77;99330.59;5031559;28;873;-63
2022/06/13 09:19:36;;;;;;;;;;;;;;;26.87;55.36;99327.19;5035840;28;1963;-61
2022/06/13 09:22:08;;;;;;;;;;;;;;;27.34;54.38;99320.63;5017528;28;1288;-62
2022/06/13 09:24:35;;;;;;;;;;;;;;;27.56;53.52;99311.09;5035399;28;843;-62
2022/06/13 09:30:19;;;;;;;;;;;;;;;27.39;52.60;99308.44;5035546;28;934;-64
2022/06/13 09:35:59;;;;;;;;;;;;;;;27.51;56.48;99320.44;5035054;28;633;-62
2022/06/13 09:38:32;;;;;;;;;;;;;;;27.18;55.07;99323.03;5035192;28;1890;-62
2022/06/13 09:41:01;;;;;;;;;;;;;;;26.58;56.54;99331.50;5035301;28;863;-63
2022/06/13 09:43:46;;;;;;;;;;;;;;;26.59;58.48;99328.16;5034935;28;861;-62
2022/06/13 09:46:12;;;;;;;;;;;;;;;26.73;58.01;99317.75;5034879;28;1389;-65
2022/06/13 09:48:49;;;;;;;;;;;;;;;26.69;57.21;99320.09;5034814;28;869;-65
2022/06/13 09:51:38;;;;;;;;;;;;;;;26.41;57.03;99326.69;5034807;28;799;-61
2022/06/13 09:54:12;;;;;;;;;;;;;;;26.25;59.97;99324.72;5034744;28;865;-62
2022/06/13 09:56:58;;;;;;;;;;;;;;;26.49;58.74;99330.50;5034921;28;842;-63
2022/06/13 09:59:40;;;;;;;;;;;;;;;26.78;57.52;99330.31;5034625;28;1914;-65
2022/06/13 10:31:56;;;;;;;;;;;;;;;27.80;55.39;99301.78;4994249;28;1588;-62
2022/06/13 10:34:35;;;;;;;;;;;;;;;27.95;56.58;99318.41;4994741;28;849;-61
2022/06/13 10:37:21;;;;;;;;;;;;;;;28.26;55.87;99323.41;4994685;28;885;-62
2022/06/13 10:39:49;;;;;;;;;;;;;;;28.61;55.42;99315.19;4994973;28;905;-61
2022/06/13 10:42:18;;;;;;;;;;;;;;;28.70;54.31;99326.19;4994577;28;909;-64
2022/06/13 10:44:45;;;;;;;;;;;;;;;28.44;55.08;99319.03;4994548;28;822;-64
2022/06/13 10:47:20;;;;;;;;;;;;;;;27.61;57.02;99325.22;4994632;28;822;-63
2022/06/13 10:49:59;;;;;;;;;;;;;;;27.03;58.83;99331.16;4994435;28;926;-63
2022/06/13 10:52:27;;;;;;;;;;;;;;;27.61;56.42;99313.88;4994379;28;897;-61
2022/06/13 10:55:00;;;;;;;;;;;;;;;28.29;55.60;99311.00;4994330;28;859;-62
2022/06/13 10:57:29;;;;;;;;;;;;;;;28.25;55.60;99318.25;4994244;28;1894;-61
2022/06/13 11:00:14;;;;;;;;;;;;;;;28.25;55.42;99321.88;4994190;28;823;-62
2022/06/13 11:02:41;;;;;;;;;;;;;;;28.81;52.68;99317.47;4994099;28;854;-64
2022/06/13 11:05:10;;;;;;;;;;;;;;;28.49;53.89;99308.94;4994146;28;831;-60
2022/06/13 11:08:03;;;;;;;;;;;;;;;27.78;54.79;99313.69;4994027;28;854;-62
2022/06/13 11:10:37;;;;;;;;;;;;;;;27.76;56.06;99319.13;4992466;28;1452;-63
2022/06/13 11:13:04;;;;;;;;;;;;;;;27.83;55.06;99315.69;4994032;28;850;-64
2022/06/13 11:24:19;;;;;;;;;;;;;;;27.08;56.46;99319.78;4993826;28;626;-63
2022/06/13 11:29:32;;;;;;;;;;;;;;;29.04;54.38;99309.34;4996519;28;1156;-64
2022/06/13 11:32:00;;;;;;;;;;;;;;;29.96;51.71;99329.13;5013091;28;858;-64
2022/06/13 11:34:32;;;;;;;;;;;;;;;30.10;49.30;99310.72;5012703;28;862;-62
2022/06/13 11:37:01;;;;;;;;;;;;;;;30.37;49.07;99304.97;5013102;28;886;-62
2022/06/13 11:39:32;;;;;;;;;;;;;;;30.72;48.59;99312.19;5013021;28;1906;-62
2022/06/13 11:41:59;;;;;;;;;;;;;;;30.47;47.56;99317.41;5013093;28;901;-61
2022/06/13 11:44:26;;;;;;;;;;;;;;;30.62;48.18;99314.75;5013326;28;879;-63
2022/06/13 11:46:55;;;;;;;;;;;;;;;31.31;47.17;99317.47;5013326;28;867;-64
2022/06/13 11:49:25;;;;;;;;;;;;;;;31.58;46.32;99308.72;5012833;28;1067;-63
2022/06/13 11:52:01;;;;;;;;;;;;;;;32.01;46.64;99316.63;5012875;28;795;-63
2022/06/13 11:54:35;;;;;;;;;;;;;;;32.26;44.58;99322.63;5013075;28;890;-62
2022/06/13 11:57:14;;;;;;;;;;;;;;;32.08;45.07;99320.84;5013034;28;870;-64
2022/06/13 11:59:52;;;;;;;;;;;;;;;32.71;44.70;99326.19;5012418;28;1854;-64
2022/06/13 12:02:22;;;;;;;;;;;;;;;33.28;43.68;99322.22;5012742;28;914;-63
2022/06/13 12:04:51;;;;;;;;;;;;;;;34.17;42.65;99326.09;5012571;28;883;-64
2022/06/13 12:07:44;;;;;;;;;;;;;;;34.26;41.45;99321.84;5012535;28;874;-63
2022/06/13 12:10:17;;;;;;;;;;;;;;;34.86;40.91;99310.59;5009962;28;1762;-64
2022/06/13 12:12:45;;;;;;;;;;;;;;;34.65;40.77;99328.13;5012438;28;873;-64
2022/06/13 12:15:13;;;;;;;;;;;;;;;33.69;41.85;99318.19;5012441;28;1000;-64
2022/06/13 12:17:43;;;;;;;;;;;;;;;33.79;40.70;99318.34;5012632;28;1894;-64
2022/06/13 12:20:14;;;;;;;;;;;;;;;33.67;41.62;99317.22;4994769;28;1289;-65
2022/06/13 12:22:44;;;;;;;;;;;;;;;33.60;40.67;99318.78;5012356;28;874;-64
2022/06/13 12:25:11;;;;;;;;;;;;;;;33.23;40.90;99317.47;5012281;28;818;-61
2022/06/13 12:27:46;;;;;;;;;;;;;;;32.69;41.82;99303.88;5012254;28;870;-63
2022/06/13 12:30:18;;;;;;;;;;;;;;;33.09;42.39;99303.34;5011777;28;1377;-65
2022/06/13 12:32:47;;;;;;;;;;;;;;;33.74;41.31;99291.44;5012463;28;799;-61
2022/06/13 12:35:32;;;;;;;;;;;;;;;33.79;42.01;99294.66;5012102;28;803;-64
2022/06/13 12:38:17;;;;;;;;;;;;;;;33.27;42.05;99284.25;5012522;28;1910;-64
2022/06/13 12:40:55;;;;;;;;;;;;;;;32.91;42.80;99288.06;5011930;28;859;-64
2022/06/13 12:43:45;;;;;;;;;;;;;;;33.31;42.09;99275.28;5011956;28;966;-64
2022/06/13 12:46:29;;;;;;;;;;;;;;;33.22;41.26;99281.56;5011267;28;814;-63
2022/06/13 12:49:13;;;;;;;;;;;;;;;32.91;42.43;99273.00;5012184;28;870;-62
2022/06/13 12:51:50;;;;;;;;;;;;;;;33.64;42.73;99275.41;5012029;28;823;-64
2022/06/13 12:54:36;;;;;;;;;;;;;;;33.86;41.40;99274.56;5011892;28;811;-63
2022/06/13 12:57:21;;;;;;;;;;;;;;;33.35;41.52;99272.78;5011823;28;858;-65
2022/06/13 12:59:56;;;;;;;;;;;;;;;33.52;41.43;99278.69;5011845;28;1985;-64
2022/06/13 13:02:35;;;;;;;;;;;;;;;33.60;41.34;99277.91;5011782;28;882;-64
2022/06/13 13:05:19;;;;;;;;;;;;;;;33.42;41.53;99274.88;5011744;28;874;-65
2022/06/13 13:08:24;;;;;;;;;;;;;;;33.47;42.12;99271.03;5011719;28;885;-64
2022/06/13 13:11:06;;;;;;;;;;;;;;;33.47;41.35;99268.16;4935224;29;1234;-63
2022/06/13 13:13:50;;;;;;;;;;;;;;;33.13;42.06;99269.38;4951606;29;807;-63
2022/06/13 13:16:17;;;;;;;;;;;;;;;33.53;41.92;99253.66;4951227;29;918;-63
2022/06/13 13:19:02;;;;;;;;;;;;;;;33.96;42.35;99260.41;4951319;29;1954;-64
2022/06/13 13:21:34;;;;;;;;;;;;;;;34.47;40.78;99259.19;4951050;29;1201;-61
2022/06/13 13:24:07;;;;;;;;;;;;;;;34.31;40.86;99261.41;4951372;29;855;-64
2022/06/13 13:26:33;;;;;;;;;;;;;;;34.52;40.61;99252.44;4951379;29;827;-64
2022/06/13 13:29:06;;;;;;;;;;;;;;;34.16;41.14;99256.50;4951078;29;910;-65
2022/06/13 13:31:33;;;;;;;;;;;;;;;33.91;41.33;99255.66;4951151;29;1504;-65
2022/06/13 13:34:18;;;;;;;;;;;;;;;33.39;41.37;99250.25;4951321;29;922;-61
2022/06/13 13:36:53;;;;;;;;;;;;;;;32.62;43.06;99252.38;4951213;29;836;-62
2022/06/13 13:39:27;;;;;;;;;;;;;;;32.51;43.36;99250.63;4951009;29;1914;-64
2022/06/13 13:41:58;;;;;;;;;;;;;;;32.49;43.25;99256.91;4989098;28;1142;-64
2022/06/13 13:44:29;;;;;;;;;;;;;;;32.86;43.56;99251.03;5011427;28;897;-64
2022/06/13 13:46:55;;;;;;;;;;;;;;;33.06;42.92;99250.09;5011567;28;885;-64
2022/06/13 13:49:40;;;;;;;;;;;;;;;32.83;42.71;99249.34;5011993;28;791;-65
2022/06/13 13:52:17;;;;;;;;;;;;;;;32.55;43.67;99246.06;5011353;28;882;-63
2022/06/13 13:54:50;;;;;;;;;;;;;;;32.48;43.36;99240.31;5011366;28;878;-65
2022/06/13 13:57:20;;;;;;;;;;;;;;;32.47;43.92;99235.94;5013589;28;909;-63
2022/06/13 13:59:52;;;;;;;;;;;;;;;32.67;44.50;99228.56;5014816;28;1985;-63
2022/06/13 14:02:29;;;;;;;;;;;;;;;32.70;43.29;99225.28;5015147;28;868;-65
2022/06/13 14:04:55;;;;;;;;;;;;;;;32.87;44.13;99227.56;5014781;28;875;-65
2022/06/13 14:07:40;;;;;;;;;;;;;;;32.90;44.30;99214.22;5014839;28;803;-65
2022/06/13 14:10:09;;;;;;;;;;;;;;;32.54;44.41;99210.22;4997116;28;1560;-64
2022/06/13 14:12:55;;;;;;;;;;;;;;;33.11;44.65;99202.59;5014739;28;811;-66
2022/06/13 14:15:30;;;;;;;;;;;;;;;32.80;43.53;99204.72;5014734;28;846;-64
2022/06/13 14:17:57;;;;;;;;;;;;;;;32.00;45.23;99217.16;5014565;28;1930;-61
2022/06/13 14:20:26;;;;;;;;;;;;;;;31.35;46.54;99209.41;5014498;28;807;-64
2022/06/13 14:22:57;;;;;;;;;;;;;;;31.29;46.99;99223.81;5014744;28;822;-63
2022/06/13 14:25:27;;;;;;;;;;;;;;;31.10;46.88;99218.38;5014457;28;850;-64
2022/06/13 14:27:59;;;;;;;;;;;;;;;30.76;47.11;99209.16;5014602;28;877;-61
2022/06/13 14:36:08;;;;;;;;;;;;;;;31.51;47.02;99201.69;5014556;28;657;-64
2022/06/13 14:38:38;;;;;;;;;;;;;;;31.73;45.39;99203.13;5014164;28;1981;-64
2022/06/13 14:41:34;;;;;;;;;;;;;;;31.49;44.84;99190.06;5014157;28;846;-64
2022/06/13 14:44:03;;;;;;;;;;;;;;;31.47;45.77;99198.44;5014149;28;791;-64
2022/06/13 14:46:56;;;;;;;;;;;;;;;32.09;45.51;99191.66;5014175;28;893;-65
2022/06/13 14:49:44;;;;;;;;;;;;;;;32.37;45.04;99180.63;5014056;28;814;-64
2022/06/13 14:52:11;;;;;;;;;;;;;;;32.47;44.82;99184.44;5003432;28;1340;-63
2022/06/13 14:54:48;;;;;;;;;;;;;;;32.75;44.64;99197.81;5013954;28;830;-66
2022/06/13 14:57:27;;;;;;;;;;;;;;;32.50;44.57;99209.81;5013812;28;822;-63
2022/06/13 15:00:02;;;;;;;;;;;;;;;31.90;46.15;99209.09;5013792;28;1890;-64
2022/06/13 15:02:29;;;;;;;;;;;;;;;30.97;47.84;99212.00;5013754;28;807;-64
2022/06/13 15:05:03;;;;;;;;;;;;;;;30.32;50.05;99224.75;5013713;28;866;-63
2022/06/13 15:07:39;;;;;;;;;;;;;;;29.09;52.49;99245.91;5013168;28;866;-65
2022/06/13 15:10:10;;;;;;;;;;;;;;;26.35;56.24;99283.47;5013572;28;783;-63
2022/06/13 15:12:39;;;;;;;;;;;;;;;23.06;69.43;99285.78;5013612;28;814;-63
2022/06/13 15:15:25;;;;;;;;;;;;;;;20.59;82.01;99275.84;4996289;28;901;-59
2022/06/13 15:17:56;;;;;;;;;;;;;;;19.13;91.47;99296.03;5013414;28;1935;-73
2022/06/13 15:20:26;;;;;;;;;;;;;;;18.22;97.93;99287.41;4996541;28;858;-69
2022/06/13 15:23:05;;;;;;;;;;;;;;;17.70;100.00;99270.41;5013382;28;789;-72
2022/06/13 15:25:48;;;;;;;;;;;;;;;17.44;100.00;99257.97;5013373;28;819;-71
2022/06/13 15:28:16;;;;;;;;;;;;;;;17.30;100.00;99246.16;4995662;28;1256;-69
2022/06/13 15:30:44;;;;;;;;;;;;;;;17.21;100.00;99246.13;5012967;28;1231;-67
2022/06/13 15:33:13;;;;;;;;;;;;;;;17.11;100.00;99259.28;5013132;28;953;-66
2022/06/13 15:35:49;;;;;;;;;;;;;;;17.10;100.00;99252.13;5013250;28;897;-65
2022/06/13 15:38:19;;;;;;;;;;;;;;;17.02;100.00;99241.72;5013120;28;1914;-69
2022/06/13 15:41:16;;;;;;;;;;;;;;;16.89;100.00;99242.59;5013365;28;787;-65
2022/06/13 15:43:47;;;;;;;;;;;;;;;16.68;100.00;99266.50;4952526;28;1108;-60
2022/06/13 15:46:32;;;;;;;;;;;;;;;16.57;100.00;99273.75;4952608;29;859;-65
2022/06/13 15:49:01;;;;;;;;;;;;;;;16.50;100.00;99267.19;4952429;29;1023;-67
2022/06/13 15:51:30;;;;;;;;;;;;;;;16.50;100.00;99283.94;4952477;29;831;-66
2022/06/13 15:54:14;;;;;;;;;;;;;;;16.23;100.00;99295.69;4936353;29;1189;-68